createdAt,value
2023-04-03T00:00:39.587Z,3.80
2023-04-03T00:04:01.273Z,3.70
2023-04-03T00:07:22.883Z,3.70
2023-04-03T00:10:44.587Z,3.70
2023-04-03T00:14:07.285Z,3.70
2023-04-03T00:17:33.678Z,3.70
2023-04-03T00:20:55.722Z,3.60
2023-04-03T00:24:17.356Z,3.60
2023-04-03T00:27:39.514Z,3.60
2023-04-03T00:31:01.323Z,3.60
2023-04-03T00:34:24.483Z,3.60
2023-04-03T00:37:46.565Z,3.60
2023-04-03T00:41:09.467Z,3.60
2023-04-03T00:44:50.482Z,3.60
2023-04-03T00:48:15.501Z,3.60
2023-04-03T00:51:38.497Z,3.60
2023-04-03T00:55:02.518Z,3.60
2023-04-03T00:58:29.144Z,3.60
2023-04-03T01:01:50.908Z,3.50
2023-04-03T01:05:13.184Z,3.50
2023-04-03T01:08:36.411Z,3.50
2023-04-03T01:12:12.976Z,3.50
2023-04-03T01:15:34.568Z,3.50
2023-04-03T01:18:56.193Z,3.60
2023-04-03T01:22:20.368Z,3.50
2023-04-03T01:25:44.350Z,3.50
2023-04-03T01:29:06.208Z,3.50
2023-04-03T01:32:29.248Z,3.50
2023-04-03T01:35:50.927Z,3.40
2023-04-03T01:39:12.840Z,3.40
2023-04-03T01:42:34.456Z,3.40
2023-04-03T01:45:56.111Z,3.40
2023-04-03T01:49:19.119Z,3.40
2023-04-03T01:52:41.073Z,3.30
2023-04-03T01:56:02.670Z,3.30
2023-04-03T01:59:24.357Z,3.40
2023-04-03T02:02:46.055Z,3.40
2023-04-03T02:06:09.062Z,3.40
2023-04-03T02:09:30.676Z,3.30
2023-04-03T02:12:52.372Z,3.30
2023-04-03T02:16:14.008Z,3.40
2023-04-03T02:19:35.743Z,3.30
2023-04-03T02:22:59.176Z,3.40
2023-04-03T02:26:20.816Z,3.40
2023-04-03T02:29:42.439Z,3.40
2023-04-03T02:33:04.221Z,3.40
2023-04-03T02:36:25.892Z,3.40
2023-04-03T02:39:48.869Z,3.40
2023-04-03T02:43:10.462Z,3.30
2023-04-03T02:46:32.391Z,3.30
2023-04-03T02:49:54.109Z,3.30
2023-04-03T02:53:15.746Z,3.30
2023-04-03T02:56:38.700Z,3.30
2023-04-03T03:00:00.339Z,3.30
2023-04-03T03:03:21.947Z,3.30
2023-04-03T03:06:44.851Z,3.30
2023-04-03T03:10:07.131Z,3.30
2023-04-03T03:13:29.884Z,3.30
2023-04-03T03:16:53.354Z,3.30
2023-04-03T03:20:15.003Z,3.30
2023-04-03T03:23:36.694Z,3.30
2023-04-03T03:26:59.854Z,3.30
2023-04-03T03:30:21.649Z,3.30
2023-04-03T03:33:45.241Z,3.30
2023-04-03T03:37:06.825Z,3.30
2023-04-03T03:40:28.493Z,3.30
2023-04-03T03:43:50.234Z,3.30
2023-04-03T03:47:11.993Z,3.30
2023-04-03T03:50:35.336Z,3.30
2023-04-03T03:53:56.923Z,3.30
2023-04-03T03:57:18.663Z,3.30
2023-04-03T04:00:40.293Z,3.40
2023-04-03T04:04:01.956Z,3.40
2023-04-03T04:07:25.055Z,3.40
2023-04-03T04:10:46.723Z,3.40
2023-04-03T04:14:08.416Z,3.40
2023-04-03T04:17:30.018Z,3.40
2023-04-03T04:20:51.691Z,3.40
2023-04-03T04:24:14.655Z,3.40
2023-04-03T04:27:36.271Z,3.40
2023-04-03T04:30:57.898Z,3.40
2023-04-03T04:34:19.683Z,3.40
2023-04-03T04:37:41.284Z,3.40
2023-04-03T04:41:04.252Z,3.40
2023-04-03T04:44:25.847Z,3.40
2023-04-03T04:47:47.530Z,3.40
2023-04-03T04:51:09.222Z,3.40
2023-04-03T04:54:30.819Z,3.40
2023-04-03T04:57:53.776Z,3.40
2023-04-03T05:01:15.447Z,3.40
2023-04-03T05:04:37.045Z,3.40
2023-04-03T05:07:58.681Z,3.40
2023-04-03T05:11:20.280Z,3.50
2023-04-03T05:14:43.250Z,3.50
2023-04-03T05:18:04.912Z,3.50
2023-04-03T05:21:26.510Z,3.50
2023-04-03T05:24:48.144Z,3.50
2023-04-03T05:28:09.853Z,3.60
2023-04-03T05:31:32.914Z,3.60
2023-04-03T05:34:54.547Z,3.60
2023-04-03T05:38:16.146Z,3.70
2023-04-03T05:41:37.941Z,3.70
2023-04-03T05:44:59.536Z,3.70
2023-04-03T05:48:22.489Z,3.70
2023-04-03T05:51:44.151Z,3.70
2023-04-03T05:55:06.392Z,3.80
2023-04-03T05:58:27.994Z,3.80
2023-04-03T06:01:49.776Z,3.80
2023-04-03T06:05:12.750Z,3.70
2023-04-03T06:08:34.621Z,3.80
2023-04-03T06:11:56.949Z,3.80
2023-04-03T06:15:18.709Z,3.80
2023-04-03T06:18:40.313Z,3.90
2023-04-03T06:22:03.304Z,3.90
2023-04-03T06:25:24.924Z,3.90
2023-04-03T06:28:46.508Z,4.00
2023-04-03T06:32:08.160Z,3.90
2023-04-03T06:35:29.882Z,4.00
2023-04-03T06:38:52.980Z,4.10
2023-04-03T06:42:14.577Z,4.10
2023-04-03T06:45:36.351Z,4.20
2023-04-03T06:48:58.118Z,4.40
2023-04-03T06:52:19.739Z,4.40
2023-04-03T06:55:42.693Z,4.50
2023-04-03T06:59:04.294Z,4.60
2023-04-03T07:02:28.193Z,4.70
2023-04-03T07:05:52.933Z,4.80
2023-04-03T07:09:14.747Z,4.90
2023-04-03T07:12:37.743Z,4.90
2023-04-03T07:15:59.687Z,5.00
2023-04-03T07:19:21.353Z,5.10
2023-04-03T07:22:42.931Z,5.20
2023-04-03T07:26:07.828Z,5.20
2023-04-03T07:29:33.089Z,5.00
2023-04-03T07:32:55.740Z,5.00
2023-04-03T07:36:19.982Z,5.10
2023-04-03T07:39:44.284Z,5.40
2023-04-03T07:43:05.928Z,5.50
2023-04-03T07:46:29.050Z,5.60
2023-04-03T07:49:50.666Z,5.70
2023-04-03T07:53:12.522Z,5.70
2023-04-03T07:56:35.492Z,6.20
2023-04-03T07:59:57.281Z,6.40
2023-04-03T08:03:20.945Z,6.40
2023-04-03T08:06:46.926Z,6.60
2023-04-03T08:10:09.214Z,6.60
2023-04-03T08:13:30.830Z,6.50
2023-04-03T08:16:54.017Z,6.50
2023-04-03T08:20:17.873Z,6.40
2023-04-03T08:23:40.043Z,6.40
2023-04-03T08:27:01.748Z,6.70
2023-04-03T08:30:23.596Z,6.60
2023-04-03T08:33:45.881Z,6.60
2023-04-03T08:37:09.916Z,6.80
2023-04-03T08:40:32.056Z,7.00
2023-04-03T08:43:59.354Z,7.40
2023-04-03T08:47:24.607Z,7.60
2023-04-03T08:50:48.108Z,7.90
2023-04-03T08:54:21.957Z,8.00
2023-04-03T08:57:49.087Z,8.00
2023-04-03T09:01:17.797Z,7.60
2023-04-03T09:04:39.496Z,7.40
2023-04-03T09:08:04.674Z,7.10
2023-04-03T09:11:31.091Z,7.00
2023-04-03T09:14:58.280Z,6.80
2023-04-03T09:18:21.531Z,6.70
2023-04-03T09:21:43.174Z,6.50
2023-04-03T09:25:10.012Z,6.30
2023-04-03T09:28:39.226Z,6.40
2023-04-03T09:32:18.909Z,6.70
2023-04-03T09:35:47.934Z,6.90
2023-04-03T09:39:12.226Z,7.20
2023-04-03T09:42:33.855Z,8.00
2023-04-03T09:45:57.646Z,8.20
2023-04-03T09:49:19.804Z,7.70
2023-04-03T09:52:41.749Z,7.50
2023-04-03T09:56:05.288Z,7.60
2023-04-03T09:59:26.983Z,7.60
2023-04-03T10:02:54.964Z,7.90
2023-04-03T10:06:23.065Z,7.70
2023-04-03T10:09:55.150Z,7.30
2023-04-03T10:13:21.041Z,7.30
2023-04-03T10:16:48.805Z,7.80
2023-04-03T10:20:21.687Z,8.00
2023-04-03T10:23:46.057Z,8.10
2023-04-03T10:27:10.177Z,7.90
2023-04-03T10:30:38.204Z,7.90
2023-04-03T10:34:02.502Z,7.60
2023-04-03T10:37:27.890Z,7.50
2023-04-03T10:40:52.981Z,7.50
2023-04-03T10:44:20.656Z,7.60
2023-04-03T10:47:47.667Z,7.80
2023-04-03T10:51:13.793Z,7.40
2023-04-03T10:54:39.240Z,7.10
2023-04-03T10:58:02.037Z,6.90
2023-04-03T11:01:25.508Z,6.50
2023-04-03T11:04:49.154Z,6.40
2023-04-03T11:08:13.774Z,6.40
2023-04-03T11:11:38.782Z,6.30
2023-04-03T11:15:02.230Z,6.30
2023-04-03T11:18:26.630Z,6.30
2023-04-03T11:21:52.069Z,6.40
2023-04-03T11:25:20.250Z,6.30
2023-04-03T11:28:43.310Z,6.20
2023-04-03T11:32:17.988Z,6.20
2023-04-03T11:35:43.316Z,6.30
2023-04-03T11:39:11.168Z,6.60
2023-04-03T11:42:36.338Z,6.80
2023-04-03T11:46:00.543Z,7.00
2023-04-03T11:49:41.201Z,7.10
2023-04-03T11:53:23.770Z,6.90
2023-04-03T11:56:45.383Z,6.80
2023-04-03T12:00:25.956Z,6.70
2023-04-03T12:04:06.072Z,6.60
2023-04-03T12:07:27.735Z,6.50
2023-04-03T12:11:04.298Z,6.40
2023-04-03T12:14:26.476Z,6.40
2023-04-03T12:17:48.125Z,6.40
2023-04-03T12:21:11.582Z,6.30
2023-04-03T12:24:34.494Z,6.50
2023-04-03T12:27:56.197Z,6.60
2023-04-03T12:31:18.449Z,6.80
2023-04-03T12:34:49.490Z,7.00
2023-04-03T12:38:34.891Z,7.30
2023-04-03T12:42:04.358Z,7.50
2023-04-03T12:45:26.704Z,7.60
2023-04-03T12:48:49.454Z,7.40
2023-04-03T12:52:18.520Z,7.20
2023-04-03T12:55:40.354Z,7.20
2023-04-03T12:59:16.018Z,7.00
2023-04-03T13:02:37.724Z,7.20
2023-04-03T13:06:01.194Z,7.30
2023-04-03T13:09:23.905Z,7.60
2023-04-03T13:12:49.939Z,7.60
2023-04-03T13:16:13.024Z,7.70
2023-04-03T13:20:10.109Z,7.70
2023-04-03T13:23:33.069Z,7.70
2023-04-03T13:26:54.948Z,7.60
2023-04-03T13:30:20.502Z,7.30
2023-04-03T13:33:51.608Z,7.20
2023-04-03T13:37:21.412Z,7.20
2023-04-03T13:40:48.261Z,7.10
2023-04-03T13:44:17.195Z,7.10
2023-04-03T13:47:39.707Z,7.20
2023-04-03T13:51:02.754Z,7.60
2023-04-03T13:54:30.030Z,7.60
2023-04-03T13:57:56.383Z,7.60
2023-04-03T14:01:20.327Z,7.40
2023-04-03T14:04:53.443Z,7.30
2023-04-03T14:08:15.140Z,7.40
2023-04-03T14:11:38.235Z,7.40
2023-04-03T14:15:01.252Z,7.40
2023-04-03T14:18:22.973Z,7.40
2023-04-03T14:21:44.605Z,7.50
2023-04-03T14:25:06.692Z,7.80
2023-04-03T14:28:29.713Z,7.80
2023-04-03T14:31:57.800Z,7.70
2023-04-03T14:35:26.113Z,7.60
2023-04-03T14:38:48.798Z,7.40
2023-04-03T14:42:13.371Z,7.30
2023-04-03T14:45:36.401Z,7.20
2023-04-03T14:48:58.224Z,7.10
2023-04-03T14:52:20.755Z,7.30
2023-04-03T14:55:43.346Z,7.40
2023-04-03T14:59:06.706Z,7.70
2023-04-03T15:02:31.406Z,7.60
2023-04-03T15:05:53.129Z,7.50
2023-04-03T15:09:20.008Z,7.20
2023-04-03T15:12:41.795Z,7.00
2023-04-03T15:16:03.757Z,7.00
2023-04-03T15:19:27.085Z,7.10
2023-04-03T15:22:49.355Z,7.10
2023-04-03T15:26:11.402Z,7.10
2023-04-03T15:29:33.234Z,7.10
2023-04-03T15:32:55.083Z,7.10
2023-04-03T15:36:33.423Z,7.00
2023-04-03T15:39:56.371Z,6.90
2023-04-03T15:43:18.164Z,6.70
2023-04-03T15:46:39.801Z,6.50
2023-04-03T15:50:01.733Z,6.40
2023-04-03T15:53:24.864Z,6.40
2023-04-03T15:56:46.466Z,6.40
2023-04-03T16:00:09.077Z,6.60
2023-04-03T16:03:30.875Z,6.70
2023-04-03T16:06:52.685Z,6.80
2023-04-03T16:10:17.705Z,6.80
2023-04-03T16:13:39.337Z,6.80
2023-04-03T16:17:01.119Z,6.70
2023-04-03T16:20:22.920Z,6.60
2023-04-03T16:23:45.184Z,6.40
2023-04-03T16:27:08.377Z,6.20
2023-04-03T16:30:30.403Z,6.20
2023-04-03T16:33:52.231Z,6.10
2023-04-03T16:37:13.860Z,6.10
2023-04-03T16:40:35.664Z,6.20
2023-04-03T16:43:58.625Z,6.20
2023-04-03T16:47:20.300Z,6.20
2023-04-03T16:50:42.055Z,6.20
2023-04-03T16:54:03.808Z,6.20
2023-04-03T16:57:25.804Z,6.30
2023-04-03T17:00:48.897Z,6.30
2023-04-03T17:04:10.804Z,6.30
2023-04-03T17:07:32.616Z,6.30
2023-04-03T17:10:54.275Z,6.20
2023-04-03T17:14:16.047Z,6.10
2023-04-03T17:17:39.167Z,6.00
2023-04-03T17:21:01.675Z,5.90
2023-04-03T17:24:23.386Z,5.90
2023-04-03T17:27:45.002Z,5.90
2023-04-03T17:31:07.009Z,5.80
2023-04-03T17:34:30.185Z,5.80
2023-04-03T17:37:52.150Z,5.80
2023-04-03T17:41:13.795Z,5.90
2023-04-03T17:44:35.428Z,5.80
2023-04-03T17:47:57.245Z,5.80
2023-04-03T17:51:21.218Z,5.70
2023-04-03T17:54:42.895Z,5.70
2023-04-03T17:58:04.537Z,5.60
2023-04-03T18:01:27.962Z,5.60
2023-04-03T18:04:50.725Z,5.60
2023-04-03T18:08:13.827Z,5.50
2023-04-03T18:11:35.607Z,5.50
2023-04-03T18:14:58.124Z,5.40
2023-04-03T18:18:19.809Z,5.40
2023-04-03T18:21:41.495Z,5.30
2023-04-03T18:25:05.091Z,5.20
2023-04-03T18:28:26.997Z,5.20
2023-04-03T18:31:50.799Z,5.20
2023-04-03T18:35:12.727Z,5.10
2023-04-03T18:38:34.358Z,5.10
2023-04-03T18:41:58.800Z,5.00
2023-04-03T18:45:22.039Z,5.00
2023-04-03T18:48:43.643Z,5.00
2023-04-03T18:52:05.337Z,4.90
2023-04-03T18:55:26.933Z,4.90
2023-04-03T18:58:50.158Z,4.90
2023-04-03T19:02:12.678Z,4.90
2023-04-03T19:05:34.375Z,4.80
2023-04-03T19:08:56.255Z,4.70
2023-04-03T19:12:17.851Z,4.60
2023-04-03T19:15:40.816Z,4.50
2023-04-03T19:19:02.493Z,4.50
2023-04-03T19:22:24.574Z,4.40
2023-04-03T19:25:46.664Z,4.40
2023-04-03T19:29:08.322Z,4.40
2023-04-03T19:32:31.590Z,4.40
2023-04-03T19:35:53.617Z,4.40
2023-04-03T19:39:17.844Z,4.40
2023-04-03T19:42:39.971Z,4.40
2023-04-03T19:46:01.896Z,4.40
2023-04-03T19:49:24.918Z,4.40
2023-04-03T19:52:46.578Z,4.40
2023-04-03T19:56:08.434Z,4.30
2023-04-03T19:59:30.160Z,4.30
2023-04-03T20:02:51.943Z,4.20
2023-04-03T20:06:15.012Z,4.30
2023-04-03T20:09:36.686Z,4.30
2023-04-03T20:12:58.280Z,4.30
2023-04-03T20:16:21.064Z,4.20
2023-04-03T20:19:42.996Z,4.10
2023-04-03T20:23:06.358Z,4.00
2023-04-03T20:26:30.143Z,4.00
2023-04-03T20:29:52.285Z,3.90
2023-04-03T20:33:14.061Z,3.80
2023-04-03T20:36:36.128Z,3.70
2023-04-03T20:39:59.588Z,3.60
2023-04-03T20:43:21.420Z,3.50
2023-04-03T20:50:11.428Z,3.30
2023-04-03T20:53:33.063Z,3.20
2023-04-03T20:56:56.007Z,3.20
2023-04-03T21:00:17.750Z,3.20
2023-04-03T21:03:39.450Z,3.10
2023-04-03T21:07:19.676Z,3.00
2023-04-03T21:10:59.858Z,3.00
2023-04-03T21:14:39.853Z,3.00
2023-04-03T21:18:18.994Z,2.90
2023-04-03T21:21:45.016Z,2.80
2023-04-03T21:25:13.544Z,2.80
2023-04-03T21:28:42.678Z,2.80
2023-04-03T21:32:11.804Z,2.70
2023-04-03T21:35:37.189Z,2.60
2023-04-03T21:38:59.541Z,2.60
2023-04-03T21:42:22.187Z,2.40
2023-04-03T21:45:44.413Z,2.40
2023-04-03T21:49:06.745Z,2.30
2023-04-03T21:52:29.737Z,2.20
2023-04-03T21:55:54.604Z,2.10
2023-04-03T21:59:16.357Z,2.00
2023-04-03T22:02:41.175Z,2.00
2023-04-03T22:06:03.073Z,1.90
2023-04-03T22:09:31.434Z,1.90
2023-04-03T22:12:53.123Z,1.90
2023-04-03T22:16:14.806Z,1.80
2023-04-03T22:19:36.461Z,1.70
2023-04-03T22:22:58.044Z,1.70
2023-04-03T22:26:21.070Z,1.70
2023-04-03T22:29:42.685Z,1.70
2023-04-03T22:33:04.340Z,1.60
2023-04-03T22:36:26.004Z,1.60
2023-04-03T22:39:47.608Z,1.50
2023-04-03T22:43:10.867Z,1.40
2023-04-03T22:46:33.535Z,1.40
2023-04-03T22:49:55.401Z,1.30
2023-04-03T22:53:17.064Z,1.30
2023-04-03T22:56:38.673Z,1.30
2023-04-03T23:00:01.643Z,1.30
2023-04-03T23:03:24.393Z,1.20
2023-04-03T23:06:46.036Z,1.20
2023-04-03T23:10:08.100Z,1.20
2023-04-03T23:13:29.855Z,1.10
2023-04-03T23:16:52.888Z,1.10
2023-04-03T23:20:14.607Z,1.00
2023-04-03T23:23:36.218Z,1.00
2023-04-03T23:26:57.807Z,0.90
2023-04-03T23:30:19.393Z,0.90
2023-04-03T23:33:42.356Z,0.80
2023-04-03T23:37:03.965Z,0.80
2023-04-03T23:40:25.553Z,0.80
2023-04-03T23:43:47.179Z,0.80
2023-04-03T23:47:08.756Z,0.80
2023-04-03T23:50:31.709Z,0.80
2023-04-03T23:53:53.355Z,0.80
2023-04-03T23:57:15.059Z,0.70
